createdAt,value
2018-06-29T00:02:06.641Z,2.43
2018-06-29T00:04:33.861Z,3.07
2018-06-29T00:07:00.842Z,3.03
2018-06-29T00:09:27.861Z,2.60
2018-06-29T00:11:54.894Z,2.40
2018-06-29T00:14:22.063Z,2.33
2018-06-29T00:16:48.881Z,2.27
2018-06-29T00:19:15.911Z,2.07
2018-06-29T00:21:42.895Z,2.27
2018-06-29T00:24:10.322Z,2.73
2018-06-29T00:26:37.285Z,2.27
2018-06-29T00:29:04.292Z,2.07
2018-06-29T00:31:31.257Z,2.83
2018-06-29T00:33:58.249Z,2.70
2018-06-29T00:36:25.242Z,2.30
2018-06-29T00:38:52.237Z,2.60
2018-06-29T00:41:19.209Z,2.50
2018-06-29T00:43:46.233Z,2.23
2018-06-29T00:46:13.204Z,3.27
2018-06-29T00:48:40.213Z,2.03
2018-06-29T00:51:07.226Z,2.60
2018-06-29T00:53:34.197Z,2.27
2018-06-29T00:56:01.202Z,2.57
2018-06-29T00:58:28.226Z,2.80
2018-06-29T01:00:55.250Z,2.30
2018-06-29T01:03:22.278Z,2.30
2018-06-29T01:05:49.277Z,2.57
2018-06-29T01:08:16.257Z,2.00
2018-06-29T01:10:43.273Z,2.63
2018-06-29T01:13:10.288Z,2.30
2018-06-29T01:15:37.305Z,2.40
2018-06-29T01:18:04.356Z,1.83
2018-06-29T01:20:31.394Z,2.97
2018-06-29T01:22:58.381Z,2.40
2018-06-29T01:25:25.369Z,2.53
2018-06-29T01:27:52.370Z,2.33
2018-06-29T01:30:19.441Z,2.33
2018-06-29T01:32:46.477Z,2.67
2018-06-29T01:35:13.505Z,2.70
2018-06-29T01:37:40.489Z,2.50
2018-06-29T01:40:07.498Z,2.50
2018-06-29T01:42:34.501Z,2.50
2018-06-29T01:45:01.498Z,2.30
2018-06-29T01:47:28.518Z,2.40
2018-06-29T01:49:55.493Z,2.70
2018-06-29T01:52:22.493Z,2.50
2018-06-29T01:54:49.481Z,2.40
2018-06-29T01:57:16.477Z,2.27
2018-06-29T01:59:43.837Z,2.67
2018-06-29T02:02:10.807Z,2.80
2018-06-29T02:04:38.265Z,3.03
2018-06-29T02:07:05.349Z,2.67
2018-06-29T02:09:32.320Z,2.90
2018-06-29T02:11:59.298Z,2.67
2018-06-29T02:14:26.316Z,2.70
2018-06-29T02:16:53.343Z,2.60
2018-06-29T02:19:20.365Z,2.65
2018-06-29T02:21:47.557Z,2.80
2018-06-29T02:24:14.573Z,3.17
2018-06-29T02:26:41.565Z,3.57
2018-06-29T02:29:08.540Z,2.70
2018-06-29T02:31:35.557Z,2.60
2018-06-29T02:34:02.533Z,3.05
2018-06-29T02:36:29.793Z,3.30
2018-06-29T02:38:56.787Z,3.00
2018-06-29T02:41:23.778Z,3.27
2018-06-29T02:43:51.509Z,3.33
2018-06-29T02:46:18.502Z,3.03
2018-06-29T02:48:45.493Z,3.37
2018-06-29T02:51:12.531Z,3.08
2018-06-29T02:53:39.558Z,3.40
2018-06-29T02:56:06.586Z,4.27
2018-06-29T02:58:33.553Z,4.10
2018-06-29T03:01:01.156Z,3.67
2018-06-29T03:03:28.125Z,3.80
2018-06-29T03:05:55.133Z,3.00
2018-06-29T03:08:22.141Z,3.63
2018-06-29T03:10:49.137Z,3.13
2018-06-29T03:13:16.133Z,4.03
2018-06-29T03:15:43.153Z,3.60
2018-06-29T03:18:10.145Z,3.43
2018-06-29T03:20:37.185Z,3.50
2018-06-29T03:23:04.313Z,3.90
2018-06-29T03:25:31.300Z,3.90
2018-06-29T03:27:58.317Z,4.03
2018-06-29T03:30:25.301Z,3.80
2018-06-29T03:32:52.718Z,4.20
2018-06-29T03:35:19.635Z,3.92
2018-06-29T03:37:46.629Z,5.03
2018-06-29T03:40:13.718Z,4.43
2018-06-29T03:42:40.698Z,3.50
2018-06-29T03:45:07.680Z,4.45
2018-06-29T03:47:34.773Z,4.33
2018-06-29T03:50:01.938Z,4.27
2018-06-29T03:52:28.923Z,3.83
2018-06-29T03:54:55.929Z,4.60
2018-06-29T03:57:22.937Z,4.05
2018-06-29T03:59:49.943Z,4.40
2018-06-29T04:02:16.932Z,4.53
2018-06-29T04:04:43.913Z,4.77
2018-06-29T04:07:10.925Z,4.67
2018-06-29T04:09:37.932Z,4.53
2018-06-29T04:12:04.950Z,4.07
2018-06-29T04:14:31.998Z,4.97
2018-06-29T04:16:58.989Z,5.37
2018-06-29T04:19:26.001Z,5.80
2018-06-29T04:21:53.393Z,5.67
2018-06-29T04:24:20.435Z,5.43
2018-06-29T04:26:47.406Z,5.77
2018-06-29T04:29:14.514Z,4.30
2018-06-29T04:31:41.653Z,5.97
2018-06-29T04:34:08.633Z,4.77
2018-06-29T04:36:35.613Z,4.63
2018-06-29T04:39:03.505Z,4.93
2018-06-29T04:41:30.701Z,4.30
2018-06-29T04:43:57.677Z,4.80
2018-06-29T04:46:24.700Z,4.63
2018-06-29T04:48:51.661Z,4.97
2018-06-29T04:51:18.753Z,4.67
2018-06-29T04:53:45.744Z,5.23
2018-06-29T04:56:12.749Z,5.50
2018-06-29T04:58:39.733Z,5.10
2018-06-29T05:01:06.769Z,5.80
2018-06-29T05:03:33.808Z,5.13
2018-06-29T05:06:00.789Z,5.30
2018-06-29T05:08:27.801Z,5.80
2018-06-29T05:10:54.764Z,5.93
2018-06-29T05:13:21.769Z,6.93
2018-06-29T05:15:48.779Z,7.00
2018-06-29T05:18:15.769Z,7.00
2018-06-29T05:20:42.750Z,8.13
2018-06-29T05:23:09.785Z,7.30
2018-06-29T05:25:36.798Z,7.70
2018-06-29T05:28:03.941Z,7.53
2018-06-29T05:30:30.982Z,6.30
2018-06-29T05:32:58.053Z,7.60
2018-06-29T05:35:25.137Z,5.73
2018-06-29T05:37:52.138Z,7.03
2018-06-29T05:40:19.122Z,6.77
2018-06-29T05:42:46.351Z,5.50
2018-06-29T05:45:13.153Z,6.67
2018-06-29T05:47:40.145Z,6.40
2018-06-29T05:50:07.765Z,7.13
2018-06-29T05:52:34.971Z,6.57
2018-06-29T05:55:02.004Z,6.57
2018-06-29T05:57:29.011Z,7.10
2018-06-29T05:59:56.113Z,5.67
2018-06-29T06:02:23.136Z,6.53
2018-06-29T06:04:50.153Z,4.90
2018-06-29T06:07:17.157Z,5.13
2018-06-29T06:09:44.167Z,7.03
2018-06-29T06:12:11.144Z,7.07
2018-06-29T06:14:38.133Z,5.60
2018-06-29T06:17:05.118Z,5.70
2018-06-29T06:19:43.581Z,5.93
2018-06-29T06:22:10.551Z,6.90
2018-06-29T06:24:37.649Z,5.67
2018-06-29T06:27:04.663Z,5.70
2018-06-29T06:29:31.689Z,5.30
2018-06-29T06:31:58.681Z,5.87
2018-06-29T06:34:25.685Z,6.70
2018-06-29T06:36:52.869Z,6.53
2018-06-29T06:39:19.910Z,6.90
2018-06-29T06:41:46.881Z,6.10
2018-06-29T06:44:14.318Z,6.20
2018-06-29T06:46:41.335Z,5.70
2018-06-29T06:49:08.525Z,6.33
2018-06-29T06:51:35.488Z,5.90
2018-06-29T06:54:03.189Z,6.17
2018-06-29T06:56:30.157Z,5.60
2018-06-29T06:58:57.185Z,5.07
2018-06-29T07:01:24.165Z,4.80
2018-06-29T07:03:51.157Z,5.00
2018-06-29T07:06:18.149Z,4.97
2018-06-29T07:08:45.113Z,4.83
2018-06-29T07:11:12.328Z,6.00
2018-06-29T07:13:39.325Z,3.97
2018-06-29T07:16:06.440Z,5.37
2018-06-29T07:18:33.435Z,4.40
2018-06-29T07:21:00.754Z,5.67
2018-06-29T07:23:27.758Z,4.30
2018-06-29T07:25:54.781Z,4.97
2018-06-29T07:28:21.797Z,4.27
2018-06-29T07:30:48.801Z,4.50
2018-06-29T07:33:15.806Z,4.40
2018-06-29T07:35:42.790Z,4.23
2018-06-29T07:38:09.762Z,3.67
2018-06-29T07:40:36.749Z,3.97
2018-06-29T07:43:03.753Z,4.03
2018-06-29T07:45:30.760Z,4.10
2018-06-29T07:47:57.777Z,4.53
2018-06-29T07:50:24.794Z,3.73
2018-06-29T07:52:51.901Z,3.83
2018-06-29T07:55:18.856Z,4.07
2018-06-29T07:57:45.813Z,3.77
2018-06-29T08:00:12.818Z,4.03
2018-06-29T08:02:39.962Z,4.40
2018-06-29T08:05:06.959Z,4.20
2018-06-29T08:07:33.933Z,4.10
2018-06-29T08:10:00.950Z,4.03
2018-06-29T08:12:27.951Z,4.00
2018-06-29T08:14:54.957Z,4.07
2018-06-29T08:17:22.026Z,4.13
2018-06-29T08:19:49.362Z,4.67
2018-06-29T08:22:16.373Z,3.90
2018-06-29T08:24:54.854Z,3.70
2018-06-29T08:27:22.003Z,4.03
2018-06-29T08:29:49.437Z,3.67
2018-06-29T08:32:16.469Z,3.00
2018-06-29T08:34:43.438Z,3.07
2018-06-29T08:37:10.425Z,3.53
2018-06-29T08:39:37.393Z,3.80
2018-06-29T08:42:04.550Z,3.83
2018-06-29T08:44:31.516Z,2.83
2018-06-29T08:46:58.634Z,3.40
2018-06-29T08:49:25.545Z,2.80
2018-06-29T08:51:52.576Z,2.67
2018-06-29T08:54:19.536Z,3.30
2018-06-29T08:56:46.526Z,2.77
2018-06-29T08:59:13.547Z,2.87
2018-06-29T09:01:40.538Z,2.90
2018-06-29T09:04:07.521Z,2.97
2018-06-29T09:06:34.503Z,3.00
2018-06-29T09:09:01.527Z,2.23
2018-06-29T09:11:28.525Z,2.60
2018-06-29T09:13:55.528Z,3.03
2018-06-29T09:16:22.525Z,2.53
2018-06-29T09:18:49.489Z,2.60
2018-06-29T09:21:16.533Z,2.60
2018-06-29T09:23:43.541Z,2.50
2018-06-29T09:26:10.556Z,2.70
2018-06-29T09:28:37.517Z,2.90
2018-06-29T09:31:04.538Z,2.67
2018-06-29T09:33:31.781Z,2.80
2018-06-29T09:35:58.856Z,3.90
2018-06-29T09:38:25.845Z,2.80
2018-06-29T09:40:52.821Z,2.60
2018-06-29T09:43:19.869Z,3.30
2018-06-29T09:45:46.847Z,3.20
2018-06-29T09:48:14.107Z,3.67
2018-06-29T09:50:41.042Z,3.20
2018-06-29T09:53:08.055Z,3.17
2018-06-29T09:55:35.054Z,3.07
2018-06-29T09:58:02.057Z,3.27
2018-06-29T10:00:30.397Z,3.03
2018-06-29T10:02:57.782Z,3.10
2018-06-29T10:05:25.058Z,3.47
2018-06-29T10:07:52.106Z,3.00
2018-06-29T10:10:19.165Z,3.00
2018-06-29T10:12:46.137Z,3.20
2018-06-29T10:15:13.101Z,3.73
2018-06-29T10:17:40.105Z,2.70
2018-06-29T10:20:07.252Z,4.20
2018-06-29T10:22:34.234Z,4.10
2018-06-29T10:25:01.235Z,3.93
2018-06-29T10:27:28.257Z,3.80
2018-06-29T10:29:55.493Z,4.10
2018-06-29T10:32:22.497Z,4.50
2018-06-29T10:34:49.481Z,3.50
2018-06-29T10:37:16.486Z,5.00
2018-06-29T10:39:43.496Z,4.40
2018-06-29T10:42:10.472Z,5.33
2018-06-29T10:44:37.481Z,5.43
2018-06-29T10:47:04.493Z,3.27
2018-06-29T10:49:31.501Z,4.17
2018-06-29T10:51:58.472Z,4.37
2018-06-29T10:54:25.441Z,4.70
2018-06-29T10:56:52.430Z,6.60
2018-06-29T10:59:19.461Z,5.70
2018-06-29T11:01:46.445Z,5.27
2018-06-29T11:04:13.434Z,4.90
2018-06-29T11:06:40.549Z,3.97
2018-06-29T11:09:08.372Z,4.40
2018-06-29T11:11:35.409Z,5.10
2018-06-29T11:14:02.542Z,4.70
2018-06-29T11:16:29.528Z,5.13
2018-06-29T11:18:56.575Z,4.60
2018-06-29T11:21:23.914Z,3.80
2018-06-29T11:23:50.888Z,4.60
2018-06-29T11:26:17.888Z,4.43
2018-06-29T11:28:44.892Z,5.10
2018-06-29T11:31:11.925Z,4.00
2018-06-29T11:33:38.913Z,4.27
2018-06-29T11:36:06.124Z,5.03
2018-06-29T11:38:33.126Z,4.50
2018-06-29T11:41:00.122Z,6.03
2018-06-29T11:43:27.121Z,4.73
2018-06-29T11:45:54.095Z,4.83
2018-06-29T11:48:21.096Z,4.83
2018-06-29T11:50:48.077Z,5.60
2018-06-29T11:53:15.079Z,5.23
2018-06-29T11:55:42.077Z,4.60
2018-06-29T11:58:09.056Z,5.13
2018-06-29T12:00:36.082Z,4.30
2018-06-29T12:03:03.129Z,5.60
2018-06-29T12:05:30.249Z,5.00
2018-06-29T12:07:57.294Z,4.60
2018-06-29T12:10:24.293Z,3.87
2018-06-29T12:12:51.297Z,4.97
2018-06-29T12:15:18.381Z,4.30
2018-06-29T12:17:45.437Z,4.93
2018-06-29T12:20:12.467Z,3.90
2018-06-29T12:22:39.455Z,4.20
2018-06-29T12:25:06.481Z,3.73
2018-06-29T12:27:33.529Z,4.57
2018-06-29T12:30:01.008Z,3.70
2018-06-29T12:32:28.029Z,3.83
2018-06-29T12:34:55.017Z,3.87
2018-06-29T12:37:21.989Z,4.10
2018-06-29T12:39:49.029Z,4.73
2018-06-29T12:42:16.061Z,5.03
2018-06-29T12:44:43.036Z,4.50
2018-06-29T12:47:10.029Z,4.70
2018-06-29T12:49:37.029Z,5.37
2018-06-29T12:52:04.049Z,3.20
2018-06-29T12:54:31.025Z,3.60
2018-06-29T12:56:58.016Z,3.37
2018-06-29T12:59:24.985Z,3.60
2018-06-29T13:01:51.953Z,4.73
2018-06-29T13:04:18.973Z,4.07
2018-06-29T13:06:45.961Z,3.80
2018-06-29T13:09:12.925Z,3.90
2018-06-29T13:11:39.889Z,3.87
2018-06-29T13:14:07.119Z,4.33
2018-06-29T13:16:34.649Z,4.17
2018-06-29T13:19:01.637Z,3.90
2018-06-29T13:21:28.657Z,4.30
2018-06-29T13:23:55.656Z,3.97
2018-06-29T13:26:22.724Z,3.80
2018-06-29T13:28:49.714Z,3.87
2018-06-29T13:31:16.721Z,3.33
2018-06-29T13:33:43.823Z,4.00
2018-06-29T13:36:10.898Z,3.37
2018-06-29T13:38:37.877Z,21.40
2018-06-29T13:41:04.905Z,3.40
2018-06-29T13:43:31.900Z,3.13
2018-06-29T13:45:58.937Z,4.20
2018-06-29T13:48:25.925Z,3.27
2018-06-29T13:50:52.925Z,3.50
2018-06-29T13:53:19.901Z,3.23
2018-06-29T13:55:46.917Z,3.03
2018-06-29T13:58:13.879Z,2.60
2018-06-29T14:00:40.873Z,3.37
2018-06-29T14:03:07.846Z,2.67
2018-06-29T14:05:34.856Z,2.17
2018-06-29T14:08:01.837Z,2.90
2018-06-29T14:10:28.819Z,3.60
2018-06-29T14:12:55.789Z,4.13
2018-06-29T14:15:22.961Z,3.27
2018-06-29T14:17:50.229Z,3.43
2018-06-29T14:20:17.221Z,3.17
2018-06-29T14:22:44.223Z,3.10
2018-06-29T14:25:11.208Z,2.90
2018-06-29T14:27:38.250Z,3.10
2018-06-29T14:30:05.728Z,3.03
2018-06-29T14:32:33.667Z,3.13
2018-06-29T14:35:00.684Z,2.80
2018-06-29T14:37:27.701Z,2.60
2018-06-29T14:39:54.670Z,3.00
2018-06-29T14:42:21.676Z,2.97
2018-06-29T14:44:48.661Z,1.87
2018-06-29T14:47:15.637Z,2.70
2018-06-29T14:49:42.629Z,1.93
2018-06-29T14:52:09.597Z,2.07
2018-06-29T14:54:36.645Z,2.00
2018-06-29T14:57:03.889Z,2.10
2018-06-29T14:59:30.873Z,2.53
2018-06-29T15:01:57.921Z,2.10
2018-06-29T15:04:24.908Z,2.07
2018-06-29T15:06:51.889Z,2.00
2018-06-29T15:09:18.885Z,2.00
2018-06-29T15:11:46.018Z,1.73
2018-06-29T15:14:13.018Z,1.67
2018-06-29T15:16:40.025Z,1.67
2018-06-29T15:19:06.994Z,2.03
2018-06-29T15:21:34.206Z,2.00
2018-06-29T15:24:02.088Z,1.87
2018-06-29T15:26:29.299Z,1.90
2018-06-29T15:28:56.297Z,2.30
2018-06-29T15:31:23.329Z,1.83
2018-06-29T15:33:50.292Z,1.90
2018-06-29T15:36:17.500Z,1.90
2018-06-29T15:38:44.488Z,2.40
2018-06-29T15:41:11.496Z,2.33
2018-06-29T15:43:38.472Z,2.10
2018-06-29T15:46:05.521Z,2.30
2018-06-29T15:48:32.533Z,1.80
2018-06-29T15:50:59.553Z,1.80
2018-06-29T15:53:26.548Z,1.77
2018-06-29T15:55:53.609Z,1.70
2018-06-29T15:58:20.683Z,1.53
2018-06-29T16:00:47.653Z,2.17
2018-06-29T16:03:14.733Z,1.60
2018-06-29T16:05:41.786Z,1.43
2018-06-29T16:08:08.765Z,1.50
2018-06-29T16:10:35.759Z,1.33
2018-06-29T16:13:02.725Z,1.40
2018-06-29T16:15:29.712Z,1.30
2018-06-29T16:17:56.693Z,1.73
2018-06-29T16:20:24.167Z,1.60
2018-06-29T16:22:51.145Z,1.63
2018-06-29T16:25:18.121Z,1.80
2018-06-29T16:27:45.129Z,1.83
2018-06-29T16:30:12.101Z,1.67
2018-06-29T16:32:39.125Z,1.73
2018-06-29T16:35:06.412Z,1.90
2018-06-29T16:37:33.458Z,2.03
2018-06-29T16:40:00.390Z,2.17
2018-06-29T16:42:27.381Z,2.27
2018-06-29T16:44:54.415Z,1.60
2018-06-29T16:47:21.440Z,1.33
2018-06-29T16:49:48.409Z,1.70
2018-06-29T16:52:15.507Z,1.60
2018-06-29T16:54:42.487Z,1.67
2018-06-29T16:57:09.505Z,1.80
2018-06-29T16:59:36.509Z,1.37
2018-06-29T17:02:03.522Z,1.70
2018-06-29T17:04:30.693Z,1.33
2018-06-29T17:06:57.681Z,1.50
2018-06-29T17:09:24.673Z,1.80
2018-06-29T17:11:51.699Z,1.80
2018-06-29T17:14:18.685Z,2.10
2018-06-29T17:16:45.676Z,1.80
2018-06-29T17:19:12.676Z,1.33
2018-06-29T17:21:40.117Z,1.30
2018-06-29T17:24:07.090Z,2.20
2018-06-29T17:26:34.091Z,2.20
2018-06-29T17:29:01.207Z,1.40
2018-06-29T17:31:28.068Z,1.53
2018-06-29T17:33:55.269Z,1.70
2018-06-29T17:36:22.181Z,1.43
2018-06-29T17:38:49.189Z,1.53
2018-06-29T17:41:16.289Z,2.57
2018-06-29T17:43:43.289Z,2.03
2018-06-29T17:46:10.261Z,1.80
2018-06-29T17:48:37.337Z,1.60
2018-06-29T17:51:04.515Z,2.10
2018-06-29T17:53:31.541Z,1.73
2018-06-29T17:55:58.521Z,1.37
2018-06-29T17:58:25.615Z,1.80
2018-06-29T18:00:52.684Z,2.00
2018-06-29T18:03:19.626Z,1.77
2018-06-29T18:05:46.605Z,1.50
2018-06-29T18:08:13.617Z,1.73
2018-06-29T18:10:40.602Z,1.77
2018-06-29T18:13:07.677Z,1.80
2018-06-29T18:15:34.861Z,1.50
2018-06-29T18:18:01.965Z,1.60
2018-06-29T18:20:28.897Z,1.83
2018-06-29T18:22:55.937Z,2.10
2018-06-29T18:25:22.902Z,1.70
2018-06-29T18:27:49.938Z,2.30
2018-06-29T18:30:17.066Z,2.10
2018-06-29T18:32:44.081Z,2.00
2018-06-29T18:35:11.102Z,2.00
2018-06-29T18:37:38.189Z,2.00
2018-06-29T18:40:05.210Z,2.60
2018-06-29T18:42:32.201Z,2.90
2018-06-29T18:44:59.204Z,2.50
2018-06-29T18:47:26.185Z,2.33
2018-06-29T18:49:53.278Z,2.60
2018-06-29T18:52:20.390Z,2.13
2018-06-29T18:54:47.380Z,2.50
2018-06-29T18:57:14.373Z,2.50
2018-06-29T18:59:41.361Z,2.60
2018-06-29T19:02:08.361Z,2.30
2018-06-29T19:04:35.373Z,3.03
2018-06-29T19:07:02.360Z,3.00
2018-06-29T19:09:29.350Z,2.70
2018-06-29T19:11:56.334Z,2.83
2018-06-29T19:14:23.425Z,3.00
2018-06-29T19:16:50.395Z,2.80
2018-06-29T19:19:17.705Z,3.60
2018-06-29T19:21:44.813Z,3.03
2018-06-29T19:24:11.833Z,3.47
2018-06-29T19:26:38.804Z,3.33
2018-06-29T19:29:05.821Z,2.97
2018-06-29T19:31:32.795Z,3.00
2018-06-29T19:33:59.844Z,3.30
2018-06-29T19:36:26.917Z,3.07
2018-06-29T19:38:53.975Z,3.23
2018-06-29T19:41:21.217Z,3.33
2018-06-29T19:43:48.201Z,3.43
2018-06-29T19:46:15.161Z,2.97
2018-06-29T19:48:42.509Z,3.40
2018-06-29T19:51:09.487Z,3.50
2018-06-29T19:53:36.486Z,3.20
2018-06-29T19:56:03.549Z,3.40
2018-06-29T19:58:30.757Z,2.70
2018-06-29T20:00:57.736Z,3.20
2018-06-29T20:03:24.722Z,3.67
2018-06-29T20:05:51.705Z,2.93
2018-06-29T20:08:18.670Z,3.63
2018-06-29T20:10:45.757Z,3.63
2018-06-29T20:13:12.757Z,3.13
2018-06-29T20:15:39.745Z,3.40
2018-06-29T20:18:06.754Z,4.00
2018-06-29T20:20:33.768Z,3.30
2018-06-29T20:23:00.751Z,3.37
2018-06-29T20:25:27.767Z,3.13
2018-06-29T20:27:54.745Z,3.37
2018-06-29T20:30:21.776Z,2.60
2018-06-29T20:32:48.765Z,3.17
2018-06-29T20:35:15.753Z,2.90
2018-06-29T20:37:42.757Z,3.10
2018-06-29T20:40:09.765Z,3.37
2018-06-29T20:42:36.774Z,3.37
2018-06-29T20:45:03.847Z,3.27
2018-06-29T20:47:30.909Z,3.17
2018-06-29T20:49:57.957Z,3.40
2018-06-29T20:52:24.932Z,3.77
2018-06-29T20:54:51.913Z,4.10
2018-06-29T20:57:18.901Z,3.00
2018-06-29T20:59:46.153Z,3.50
2018-06-29T21:02:13.205Z,3.50
2018-06-29T21:04:40.221Z,2.97
2018-06-29T21:07:07.241Z,3.50
2018-06-29T21:09:34.289Z,2.70
2018-06-29T21:12:01.274Z,2.83
2018-06-29T21:14:28.337Z,2.40
2018-06-29T21:16:55.318Z,2.13
2018-06-29T21:19:22.318Z,3.00
2018-06-29T21:21:49.305Z,2.80
2018-06-29T21:24:16.405Z,2.50
2018-06-29T21:26:43.433Z,1.70
2018-06-29T21:29:10.421Z,1.93
2018-06-29T21:31:37.426Z,2.03
2018-06-29T21:34:04.570Z,1.77
2018-06-29T21:36:31.574Z,1.77
2018-06-29T21:38:58.536Z,1.67
2018-06-29T21:41:25.540Z,1.60
2018-06-29T21:43:52.517Z,1.60
2018-06-29T21:46:19.657Z,2.10
2018-06-29T21:48:46.653Z,2.00
2018-06-29T21:51:13.685Z,2.00
2018-06-29T21:53:40.682Z,1.80
2018-06-29T21:56:07.769Z,2.40
2018-06-29T21:58:34.773Z,1.97
2018-06-29T22:01:01.882Z,1.80
2018-06-29T22:03:28.870Z,1.63
2018-06-29T22:05:55.881Z,1.57
2018-06-29T22:08:22.879Z,2.00
2018-06-29T22:10:49.968Z,1.93
2018-06-29T22:13:17.098Z,1.20
2018-06-29T22:15:44.106Z,1.40
2018-06-29T22:18:11.088Z,1.87
2018-06-29T22:20:38.105Z,1.67
2018-06-29T22:23:05.113Z,1.37
2018-06-29T22:25:32.137Z,1.50
2018-06-29T22:27:59.149Z,1.47
2018-06-29T22:30:26.441Z,1.77
2018-06-29T22:32:53.441Z,1.57
2018-06-29T22:35:21.184Z,1.70
2018-06-29T22:37:48.165Z,1.63
2018-06-29T22:40:15.162Z,1.57
2018-06-29T22:42:42.197Z,2.60
2018-06-29T22:45:09.187Z,2.30
2018-06-29T22:47:36.189Z,2.00
2018-06-29T22:50:03.571Z,1.90
2018-06-29T22:52:30.638Z,2.10
2018-06-29T22:54:57.681Z,2.60
2018-06-29T22:57:25.305Z,1.97
2018-06-29T22:59:52.433Z,2.03
2018-06-29T23:02:19.430Z,1.90
2018-06-29T23:04:46.411Z,1.80
2018-06-29T23:07:13.409Z,2.90
2018-06-29T23:09:40.481Z,2.53
2018-06-29T23:12:07.494Z,2.43
2018-06-29T23:14:34.485Z,2.00
2018-06-29T23:17:01.545Z,2.27
2018-06-29T23:19:28.533Z,2.47
2018-06-29T23:21:55.537Z,2.50
2018-06-29T23:24:22.980Z,2.20
2018-06-29T23:26:49.973Z,2.10
2018-06-29T23:29:16.958Z,2.50
2018-06-29T23:31:43.945Z,1.77
2018-06-29T23:34:11.228Z,2.53
2018-06-29T23:36:38.296Z,2.77
2018-06-29T23:39:06.634Z,2.67
2018-06-29T23:41:33.661Z,2.10
2018-06-29T23:44:00.666Z,2.63
2018-06-29T23:46:27.656Z,2.20
2018-06-29T23:48:54.634Z,2.57
2018-06-29T23:51:21.638Z,3.43
2018-06-29T23:53:48.633Z,2.67
2018-06-29T23:56:15.661Z,2.70
2018-06-29T23:58:42.666Z,2.80
